Terminal Aerodrome Forecast
Issued by NWS

Home | Current Version | Previous Version | Text Only | Print | Product List | Glossary On
Versions: 1 2 3 4 5 6 7 8 9 10 11 12 13 14 15
000
FTUS45 KABQ 222300
TAFLVS
TAF
KLVS 222337Z 2300/2324 14011KT P6SM VCTS SCT080CB
      TEMPO 2300/2302 VRB15G30KT -TSRA BKN070CB
     FM230200 14010KT P6SM BKN090
     FM230400 VRB06KT P6SM SCT090 BKN150
     FM231800 16010KT P6SM SCT100=

USA.gov is the U.S. government's official web portal to all federal, state and local government web resources and services.